Time;durP1;ratioP1;P1;durP2;ratioP2;P2;SDS_P1;SDS_P2;PMS_P1;PMS_P2;Temp;Humidity;BMP_temperature;BMP_pressure;BME280_temperature;BME280_humidity;BME280_pressure;Samples;Min_cycle;Max_cycle;Signal;HPM_P1;HPM_P2
2021/07/14 00:01:07;;;;;;;12.83;9.15;;;;;;;21.61;73.84;96240.86;127704;1093;27169;-87
2021/07/14 00:03:39;;;;;;;11.55;8.85;;;;;;;21.57;73.80;96240.80;128007;1093;25922;-86
2021/07/14 00:06:10;;;;;;;10.53;9.40;;;;;;;21.41;73.77;96242.81;127835;1092;23954;-86
2021/07/14 00:08:42;;;;;;;13.05;9.28;;;;;;;21.30;74.03;96231.82;127848;1093;46447;-87
2021/07/14 00:11:14;;;;;;;17.28;9.35;;;;;;;21.31;74.97;96233.38;127835;1093;78884;-87
2021/07/14 00:14:00;;;;;;;13.30;10.13;;;;;;;21.41;74.43;96242.81;127701;1093;56762;-86
2021/07/14 00:22:13;;;;;;;12.65;10.55;;;;;;;21.67;73.89;96227.84;127773;1092;63722;-87
2021/07/14 00:24:45;;;;;;;11.20;9.33;;;;;;;21.71;73.94;96226.01;127697;1093;27509;-85
2021/07/14 00:27:16;;;;;;;15.15;10.28;;;;;;;21.75;73.79;96227.62;127740;1093;49485;-86
2021/07/14 00:29:52;;;;;;;12.10;10.68;;;;;;;21.71;73.29;96224.09;127688;1093;62679;-86
2021/07/14 00:32:25;;;;;;;15.77;10.40;;;;;;;21.69;73.73;96220.97;125513;1093;2428054;-85
2021/07/14 00:34:57;;;;;;;14.38;10.30;;;;;;;21.70;73.54;96221.75;127638;1093;70681;-86
2021/07/14 00:37:29;;;;;;;13.70;10.28;;;;;;;21.70;73.61;96219.83;127448;1092;63378;-86
2021/07/14 00:40:01;;;;;;;10.10;9.03;;;;;;;21.71;73.26;96223.31;126288;1092;1730241;-86
2021/07/14 00:42:32;;;;;;;12.33;9.38;;;;;;;21.71;73.58;96226.01;127922;1092;45703;-86
2021/07/14 00:45:05;;;;;;;13.48;10.55;;;;;;;21.78;73.36;96215.31;127671;1093;25473;-86
2021/07/14 00:47:43;;;;;;;13.53;10.80;;;;;;;21.84;72.98;96222.77;127784;1092;22812;-86
2021/07/14 00:50:16;;;;;;;15.75;11.50;;;;;;;21.93;73.01;96223.29;127649;1092;60042;-86
2021/07/14 00:52:47;;;;;;;14.85;10.23;;;;;;;21.96;72.21;96229.10;124429;1092;2009939;-87
2021/07/14 00:55:19;;;;;;;12.70;10.23;;;;;;;21.93;72.47;96231.38;127833;1093;25019;-87
2021/07/14 00:57:51;;;;;;;14.23;10.83;;;;;;;21.88;72.53;96228.22;127675;1092;24779;-86
2021/07/14 01:00:23;;;;;;;12.85;9.98;;;;;;;21.89;72.72;96235.17;127575;1093;55061;-86
2021/07/14 01:02:55;;;;;;;14.95;10.38;;;;;;;21.78;72.34;96234.20;127630;1092;62082;-87
2021/07/14 01:05:33;;;;;;;12.50;10.43;;;;;;;21.74;72.47;96228.76;127692;1093;53203;-86
2021/07/14 01:08:16;;;;;;;14.13;9.75;;;;;;;21.66;72.59;96226.28;127641;1092;56290;-86
2021/07/14 01:10:51;;;;;;;14.60;10.75;;;;;;;21.61;72.51;96224.67;127664;1093;47425;-85
2021/07/14 01:13:36;;;;;;;11.48;10.15;;;;;;;21.62;72.60;96232.41;127528;1093;57828;-88
2021/07/14 01:16:12;;;;;;;13.78;10.28;;;;;;;21.58;72.81;96241.58;127762;1093;55265;-85
2021/07/14 01:18:50;;;;;;;14.55;10.68;;;;;;;21.49;72.85;96239.09;127688;1093;53145;-85
2021/07/14 01:21:28;;;;;;;15.28;10.68;;;;;;;21.43;72.89;96239.76;127642;1093;38025;-86
2021/07/14 01:24:10;;;;;;;12.25;10.23;;;;;;;21.45;72.78;96237.48;127903;1093;53950;-89
2021/07/14 01:27:04;;;;;;;14.68;10.85;;;;;;;21.46;73.41;96230.95;127545;1092;55754;-89
2021/07/14 01:29:40;;;;;;;12.28;10.58;;;;;;;21.43;73.23;96235.14;127608;1093;53454;-87
2021/07/14 01:32:13;;;;;;;15.23;10.53;;;;;;;21.45;73.06;96229.39;127739;1093;67339;-88
2021/07/14 01:34:51;;;;;;;13.53;11.18;;;;;;;21.45;73.09;96232.09;127816;1092;75560;-87
2021/07/14 01:37:24;;;;;;;12.38;10.35;;;;;;;21.43;73.05;96226.28;127689;1093;29261;-86
2021/07/14 01:39:59;;;;;;;12.28;10.50;;;;;;;21.24;73.14;96233.20;127798;1093;54057;-86
2021/07/14 01:42:33;;;;;;;13.25;11.05;;;;;;;21.02;73.59;96228.54;127838;1093;45458;-87
2021/07/14 01:45:08;;;;;;;15.58;10.93;;;;;;;20.99;74.47;96221.95;127621;1093;47034;-88
2021/07/14 01:47:42;;;;;;;15.03;11.85;;;;;;;21.03;74.27;96220.09;127658;1093;50491;-88
2021/07/14 01:50:18;;;;;;;15.53;12.08;;;;;;;21.01;74.12;96216.20;127768;1093;28682;-88
2021/07/14 01:52:51;;;;;;;15.48;10.83;;;;;;;20.96;74.51;96213.77;127656;1093;28906;-85
2021/07/14 01:55:25;;;;;;;16.15;11.15;;;;;;;20.96;74.54;96211.08;127742;1093;68834;-85
2021/07/14 01:57:59;;;;;;;14.33;11.35;;;;;;;20.99;74.71;96213.09;127899;1093;38917;-85
2021/07/14 02:00:32;;;;;;;13.43;11.65;;;;;;;20.98;74.58;96211.53;127702;1091;58218;-90
2021/07/14 02:03:08;;;;;;;13.60;10.98;;;;;;;20.98;74.37;96208.83;127615;1093;71040;-91
2021/07/14 02:05:42;;;;;;;12.63;11.08;;;;;;;20.97;74.22;96212.63;127825;1093;27039;-91
2021/07/14 02:08:13;;;;;;;14.48;11.78;;;;;;;20.96;74.47;96211.86;127668;1093;25200;-92
2021/07/14 02:10:47;;;;;;;15.75;11.40;;;;;;;20.98;74.83;96209.61;127539;1092;27444;-91
2021/07/14 02:13:19;;;;;;;15.40;11.60;;;;;;;21.07;74.32;96208.59;127477;1093;30801;-90
2021/07/14 02:15:54;;;;;;;15.65;11.80;;;;;;;21.15;74.13;96215.70;127610;1093;29693;-91
2021/07/14 02:18:30;;;;;;;14.40;11.80;;;;;;;21.19;74.33;96220.02;127449;1093;60997;-90
2021/07/14 02:21:01;;;;;;;14.90;11.33;;;;;;;21.21;73.64;96217.74;127689;1093;32198;-93
2021/07/14 02:23:33;;;;;;;14.97;11.43;;;;;;;21.25;73.93;96213.22;127549;1093;26182;-91
2021/07/14 02:26:06;;;;;;;17.43;11.70;;;;;;;21.32;73.65;96218.76;127470;1092;27038;-91
2021/07/14 02:28:37;;;;;;;15.00;11.35;;;;;;;21.38;73.95;96213.06;127704;1093;23736;-92
2021/07/14 02:31:08;;;;;;;13.15;10.85;;;;;;;21.41;73.41;96218.55;127499;1093;28252;-92
2021/07/14 02:33:40;;;;;;;12.68;10.38;;;;;;;21.46;73.26;96225.55;127645;1093;29822;-91
2021/07/14 02:36:16;;;;;;;13.65;11.30;;;;;;;21.52;73.34;96226.81;127653;1092;27189;-91
2021/07/14 02:38:54;;;;;;;14.28;11.43;;;;;;;21.54;72.85;96225.34;127561;1093;30684;-93
2021/07/14 02:41:32;;;;;;;16.78;13.00;;;;;;;21.56;73.32;96222.28;127506;1093;26260;-92
2021/07/14 02:44:10;;;;;;;15.25;12.45;;;;;;;21.54;72.63;96224.56;127686;1093;42592;-93
2021/07/14 02:46:46;;;;;;;13.90;10.95;;;;;;;21.54;72.80;96221.86;127884;1093;26331;-90
2021/07/14 02:49:23;;;;;;;16.48;11.55;;;;;;;21.52;72.60;96226.81;127719;1093;33370;-91
2021/07/14 02:51:56;;;;;;;14.73;12.05;;;;;;;21.53;72.72;96228.36;127650;1093;29144;-92
2021/07/14 02:54:33;;;;;;;13.10;11.73;;;;;;;21.47;72.61;96222.50;127721;1093;39886;-93
2021/07/14 02:57:06;;;;;;;17.48;11.20;;;;;;;21.43;72.98;96223.58;127839;1091;31239;-92
2021/07/14 02:59:40;;;;;;;14.83;11.85;;;;;;;21.37;73.13;96219.59;127760;1093;25768;-91
2021/07/14 03:02:15;;;;;;;14.73;11.80;;;;;;;21.30;72.96;96215.64;127823;1093;30088;-92
2021/07/14 03:04:51;;;;;;;16.63;11.78;;;;;;;21.24;73.25;96218.94;127540;1093;24472;-92
2021/07/14 03:07:26;;;;;;;15.55;11.10;;;;;;;21.22;73.46;96218.52;127476;1093;31880;-96
2021/07/14 03:09:59;;;;;;;14.35;12.33;;;;;;;21.16;73.60;96236.13;127498;1093;30163;-92
2021/07/14 03:12:31;;;;;;;14.53;11.53;;;;;;;21.15;73.52;96238.05;127520;1093;30788;-92
2021/07/14 03:15:07;;;;;;;14.13;11.77;;;;;;;21.18;73.92;96233.86;127540;1093;27083;-92
2021/07/14 03:17:40;;;;;;;14.33;10.33;;;;;;;21.22;73.92;96238.17;127781;1093;37927;-91
2021/07/14 03:20:16;;;;;;;13.03;10.80;;;;;;;21.26;74.23;96227.50;127597;1093;27457;-90
2021/07/14 03:22:51;;;;;;;14.43;11.83;;;;;;;21.28;74.12;96228.70;127587;1093;26301;-90
2021/07/14 03:25:24;;;;;;;17.85;11.80;;;;;;;21.30;74.15;96231.05;127602;1093;25645;-91
2021/07/14 03:27:57;;;;;;;14.30;11.17;;;;;;;21.29;73.78;96232.96;127560;1093;46535;-88
2021/07/14 03:30:29;;;;;;;16.18;11.53;;;;;;;21.31;73.86;96232.60;127666;1093;32371;-91
2021/07/14 03:33:00;;;;;;;14.30;11.63;;;;;;;21.37;73.77;96227.69;127722;1093;25622;-90
2021/07/14 03:35:32;;;;;;;12.78;11.10;;;;;;;21.45;73.60;96232.09;127722;1093;26710;-90
2021/07/14 03:38:05;;;;;;;15.33;11.43;;;;;;;21.51;73.08;96236.04;127719;1093;29255;-90
2021/07/14 03:40:39;;;;;;;14.55;11.73;;;;;;;21.51;73.26;96236.04;127727;1093;26302;-92
2021/07/14 03:43:12;;;;;;;14.95;11.75;;;;;;;21.47;72.88;96233.28;127759;1093;25089;-90
2021/07/14 03:45:45;;;;;;;15.88;12.13;;;;;;;21.46;73.10;96230.95;127632;1093;29557;-90
2021/07/14 03:48:18;;;;;;;13.30;11.63;;;;;;;21.53;73.57;96226.45;127611;1093;26883;-90
2021/07/14 03:50:51;;;;;;;19.13;11.95;;;;;;;21.64;73.55;96218.55;127627;1093;25095;-89
2021/07/14 03:53:24;;;;;;;16.80;11.48;;;;;;;21.75;73.44;96216.82;127607;1093;27275;-90
2021/07/14 03:55:57;;;;;;;15.28;11.65;;;;;;;21.81;73.43;96223.47;127651;1093;31747;-91
2021/07/14 03:58:29;;;;;;;13.28;11.73;;;;;;;21.79;73.51;96214.95;127522;1093;27545;-94
2021/07/14 04:01:01;;;;;;;15.90;12.08;;;;;;;21.75;73.59;96219.52;127539;1093;30344;-91
2021/07/14 04:03:33;;;;;;;13.40;10.98;;;;;;;21.74;73.38;96223.36;127459;1093;26335;-93
2021/07/14 04:06:07;;;;;;;14.18;11.43;;;;;;;21.76;74.05;96214.91;127829;1093;30426;-92
2021/07/14 04:08:44;;;;;;;14.10;11.30;;;;;;;21.83;74.27;96217.73;127621;1093;31476;-91
2021/07/14 04:11:16;;;;;;;15.18;11.35;;;;;;;21.93;74.46;96217.11;127675;1092;30160;-90
2021/07/14 04:13:47;;;;;;;17.98;11.80;;;;;;;21.95;74.67;96217.53;127583;1093;24589;-91
2021/07/14 04:16:19;;;;;;;14.53;11.80;;;;;;;21.96;74.79;96215.61;127584;1093;26986;-91
2021/07/14 04:18:50;;;;;;;12.83;10.58;;;;;;;22.00;74.59;96214.55;127458;1093;24863;-92
2021/07/14 04:21:22;;;;;;;15.18;11.55;;;;;;;22.04;74.33;96218.07;127571;1093;25668;-91
2021/07/14 04:23:53;;;;;;;16.78;13.35;;;;;;;22.07;74.58;96213.89;127619;1093;35425;-90
2021/07/14 04:26:25;;;;;;;14.60;11.08;;;;;;;22.10;74.77;96207.77;127603;1092;26567;-91
2021/07/14 04:28:56;;;;;;;13.93;12.10;;;;;;;22.27;73.91;96211.90;127640;1093;23787;-94
2021/07/14 04:31:28;;;;;;;15.15;12.20;;;;;;;22.49;74.10;96209.13;127481;1093;24464;-95
2021/07/14 04:33:59;;;;;;;13.83;11.23;;;;;;;22.74;73.81;96208.69;127538;1093;25862;-90
2021/07/14 04:36:31;;;;;;;13.83;11.48;;;;;;;22.90;73.19;96203.91;127599;1093;26340;-96
2021/07/14 04:39:02;;;;;;;17.30;11.70;;;;;;;23.06;72.83;96196.37;127718;1092;24576;-94
2021/07/14 04:41:35;;;;;;;16.53;11.80;;;;;;;23.28;72.75;96196.62;127533;1093;27039;-93
2021/07/14 04:44:09;;;;;;;12.68;11.20;;;;;;;23.48;71.97;96189.86;127554;1093;33758;-90
2021/07/14 04:46:41;;;;;;;13.13;11.30;;;;;;;23.63;71.36;96194.28;127698;1093;25866;-91
2021/07/14 04:49:14;;;;;;;13.58;12.18;;;;;;;23.84;70.80;96198.34;127544;1093;33610;-93
2021/07/14 04:51:45;;;;;;;15.17;11.63;;;;;;;24.03;70.59;96200.81;127685;1093;33825;-88
2021/07/14 04:54:17;;;;;;;13.50;10.73;;;;;;;24.22;70.90;96199.81;127733;1093;26530;-90
2021/07/14 04:56:50;;;;;;;17.18;11.85;;;;;;;24.34;69.25;96196.03;127734;1093;23394;-91
2021/07/14 04:59:22;;;;;;;16.00;11.73;;;;;;;24.45;69.00;96191.45;127726;1092;33900;-90
2021/07/14 05:01:53;;;;;;;12.80;10.48;;;;;;;24.56;68.69;96195.79;127685;1093;28921;-91
2021/07/14 05:04:25;;;;;;;12.50;11.20;;;;;;;24.70;67.88;96197.80;127886;1092;27980;-91
2021/07/14 05:06:56;;;;;;;14.08;11.58;;;;;;;24.84;67.66;96191.67;127580;1092;25769;-91
2021/07/14 05:09:28;;;;;;;14.43;12.10;;;;;;;25.06;67.87;96192.58;127667;1093;28224;-92
2021/07/14 05:12:00;;;;;;;17.05;12.08;;;;;;;25.26;67.27;96193.02;127811;1093;25905;-92
2021/07/14 05:14:31;;;;;;;15.07;11.17;;;;;;;25.60;67.07;96204.33;127566;1093;28602;-91
2021/07/14 05:17:03;;;;;;;12.88;11.45;;;;;;;26.12;65.87;96218.37;127568;1093;28030;-93
2021/07/14 05:19:34;;;;;;;14.03;11.40;;;;;;;26.60;64.60;96222.24;127495;1093;32854;-93
2021/07/14 05:22:06;;;;;;;13.77;11.53;;;;;;;26.93;63.55;96220.97;127466;1093;29394;-91
2021/07/14 05:24:38;;;;;;;16.15;11.63;;;;;;;27.37;63.15;96227.04;127593;1092;34182;-93
2021/07/14 05:27:09;;;;;;;13.13;11.30;;;;;;;27.99;62.61;96229.00;127570;1093;51208;-94
2021/07/14 05:29:41;;;;;;;14.55;11.18;;;;;;;28.77;62.55;96220.16;127636;1093;30694;-93
2021/07/14 05:32:13;;;;;;;13.65;10.95;;;;;;;29.46;60.64;96218.18;127691;1093;30290;-94
2021/07/14 05:34:44;;;;;;;11.68;9.23;;;;;;;29.63;58.97;96221.88;127801;1092;28792;-94
2021/07/14 05:37:17;;;;;;;16.03;10.48;;;;;;;29.69;57.80;96217.48;127595;1093;33082;-92
2021/07/14 05:39:48;;;;;;;11.50;10.37;;;;;;;29.66;56.47;96208.16;127683;1093;29199;-94
2021/07/14 05:42:20;;;;;;;12.75;9.98;;;;;;;29.85;55.82;96201.26;127566;1093;36454;-94
2021/07/14 05:44:51;;;;;;;12.93;10.68;;;;;;;29.80;54.81;96194.28;127596;1093;39293;-94
2021/07/14 05:47:23;;;;;;;12.05;10.15;;;;;;;30.34;55.83;96190.70;127661;1092;36149;-93
2021/07/14 05:49:55;;;;;;;11.05;9.73;;;;;;;31.26;55.10;96191.72;127684;1093;36643;-93
2021/07/14 05:52:26;;;;;;;14.25;10.18;;;;;;;31.99;53.56;96180.70;127682;1092;33546;-94
2021/07/14 05:54:58;;;;;;;14.33;9.35;;;;;;;32.83;51.91;96174.25;127525;1093;29769;-95
2021/07/14 05:57:30;;;;;;;11.08;9.33;;;;;;;33.02;48.53;96178.80;127598;1093;103295;-94
2021/07/14 06:00:01;;;;;;;11.10;9.50;;;;;;;32.90;47.78;96193.27;127709;1093;51805;-94
2021/07/14 06:02:33;;;;;;;10.98;9.30;;;;;;;32.69;48.13;96207.56;127485;1093;215165;-95
2021/07/14 06:05:06;;;;;;;10.63;9.30;;;;;;;32.34;48.67;96214.73;127774;1093;31090;-94
2021/07/14 06:07:38;;;;;;;11.20;8.80;;;;;;;32.43;49.36;96218.41;127709;1093;35058;-95
2021/07/14 06:10:11;;;;;;;12.33;8.83;;;;;;;33.46;49.42;96212.09;127923;1093;37968;-88
2021/07/14 06:12:42;;;;;;;10.33;9.15;;;;;;;34.43;47.97;96218.89;128053;1093;27651;-88
2021/07/14 06:15:14;;;;;;;11.43;8.68;;;;;;;35.09;46.52;96217.00;127891;1093;24053;-87
2021/07/14 06:17:46;;;;;;;10.58;8.23;;;;;;;35.40;44.85;96214.30;127888;1092;25363;-86
2021/07/14 06:20:18;;;;;;;14.18;8.90;;;;;;;35.93;44.25;96205.22;127875;1093;196453;-88
2021/07/14 06:22:50;;;;;;;9.95;8.33;;;;;;;35.90;42.97;96179.31;127917;1093;23030;-87
2021/07/14 06:25:21;;;;;;;9.93;8.45;;;;;;;35.79;41.94;96167.90;127783;1093;24396;-86
2021/07/14 06:27:53;;;;;;;10.75;8.30;;;;;;;35.73;41.83;96157.91;127746;1091;35774;-87
2021/07/14 06:30:25;;;;;;;10.23;8.25;;;;;;;34.58;41.77;96150.34;127617;1093;26874;-87
2021/07/14 06:32:58;;;;;;;9.73;8.18;;;;;;;33.35;42.75;96145.67;127645;1092;29568;-88
2021/07/14 06:35:30;;;;;;;10.98;8.43;;;;;;;33.03;45.63;96135.63;127751;1093;30243;-88
2021/07/14 06:38:01;;;;;;;11.55;8.53;;;;;;;33.92;45.40;96146.66;127651;1093;22969;-87
2021/07/14 06:40:37;;;;;;;12.08;8.50;;;;;;;34.64;44.73;96158.81;127678;1093;27080;-87
2021/07/14 06:43:09;;;;;;;11.23;8.28;;;;;;;35.66;45.11;96170.00;127785;1091;25793;-87
2021/07/14 06:45:41;;;;;;;10.95;8.35;;;;;;;37.07;43.57;96173.57;127706;1093;27144;-87
2021/07/14 06:48:12;;;;;;;10.63;7.90;;;;;;;37.99;40.99;96176.02;127785;1092;26825;-86
2021/07/14 06:50:44;;;;;;;8.83;7.93;;;;;;;38.58;39.99;96179.05;127932;1093;35695;-88
2021/07/14 06:53:15;;;;;;;8.18;7.03;;;;;;;39.12;39.18;96165.96;127913;1092;22799;-85
2021/07/14 06:55:47;;;;;;;10.75;8.00;;;;;;;39.60;38.96;96165.77;127741;1093;26747;-86
2021/07/14 06:58:18;;;;;;;9.48;7.40;;;;;;;40.01;37.55;96167.41;127794;1093;25543;-87
2021/07/14 07:00:50;;;;;;;9.48;7.20;;;;;;;39.76;34.15;96162.47;127726;1093;26152;-87
2021/07/14 07:03:21;;;;;;;7.55;6.85;;;;;;;39.39;35.31;96165.66;127680;1092;27089;-87
2021/07/14 07:05:54;;;;;;;7.83;7.00;;;;;;;40.04;36.23;96168.45;127690;1093;26476;-87
2021/07/14 07:08:26;;;;;;;10.85;7.00;;;;;;;40.09;33.33;96172.53;127684;1093;27506;-90
2021/07/14 07:10:57;;;;;;;8.23;6.70;;;;;;;40.01;33.78;96172.95;127663;1093;22832;-87
2021/07/14 07:13:29;;;;;;;7.95;6.85;;;;;;;41.23;33.49;96175.62;127794;1093;23989;-88
2021/07/14 07:16:01;;;;;;;9.40;7.53;;;;;;;41.77;33.32;96175.08;127797;1093;26757;-89
2021/07/14 07:18:33;;;;;;;10.38;6.90;;;;;;;42.45;29.44;96165.06;127577;1093;32908;-88
2021/07/14 07:21:07;;;;;;;8.48;6.85;;;;;;;41.73;29.21;96163.41;127850;1093;30396;-88
2021/07/14 07:23:39;;;;;;;8.05;7.18;;;;;;;41.18;29.40;96176.34;127620;1093;26240;-88
2021/07/14 07:26:10;;;;;;;8.05;6.75;;;;;;;41.01;29.65;96183.77;127683;1093;26042;-88
2021/07/14 07:28:43;;;;;;;8.30;7.40;;;;;;;41.01;29.13;96177.45;128486;1093;36778;-88
2021/07/14 07:31:14;;;;;;;10.33;7.08;;;;;;;41.28;30.71;96188.09;128208;1093;23738;-88
2021/07/14 07:33:46;;;;;;;7.80;7.00;;;;;;;42.13;30.17;96179.13;127905;1093;26495;-85
2021/07/14 07:36:18;;;;;;;7.00;6.27;;;;;;;42.80;28.93;96190.56;127710;1093;28736;-88
2021/07/14 07:38:49;;;;;;;9.08;6.53;;;;;;;42.91;28.65;96190.59;127638;1093;24687;-87
2021/07/14 07:41:22;;;;;;;7.38;6.23;;;;;;;43.61;27.45;96190.92;127801;1093;26557;-87
2021/07/14 07:43:55;;;;;;;9.58;7.05;;;;;;;42.91;27.03;96190.59;127600;1093;35734;-89
2021/07/14 07:46:26;;;;;;;6.83;6.13;;;;;;;43.45;27.32;96189.66;127628;1093;23315;-88
2021/07/14 07:48:58;;;;;;;9.55;6.18;;;;;;;43.86;26.04;96187.12;127772;1093;24622;-87
2021/07/14 07:51:30;;;;;;;6.53;5.93;;;;;;;43.70;25.80;96176.71;127770;1093;28520;-87
2021/07/14 07:54:04;;;;;;;6.30;5.80;;;;;;;44.03;25.45;96185.04;127686;1093;24253;-87
2021/07/14 07:56:35;;;;;;;7.75;6.05;;;;;;;44.58;25.74;96188.97;127783;1093;67952;-88
2021/07/14 07:59:09;;;;;;;7.03;6.33;;;;;;;44.43;24.41;96186.47;127751;1093;66384;-86
2021/07/14 08:01:42;;;;;;;6.65;5.68;;;;;;;44.11;26.25;96194.45;124752;1092;2120792;-87
2021/07/14 08:04:21;;;;;;;6.76;6.06;;;;;;;44.94;24.74;96201.02;78290;1093;6975238;-88
2021/07/14 08:06:55;;;;;;;8.25;5.83;;;;;;;44.32;23.47;96199.72;127628;1093;35257;-86
2021/07/14 08:09:42;;;;;;;8.60;6.06;;;;;;;44.14;25.71;96201.05;88735;1093;5474066;-86
2021/07/14 08:12:23;;;;;;;8.33;5.80;;;;;;;45.64;25.55;96200.78;108456;1092;6265286;-87
2021/07/14 08:14:56;;;;;;;8.43;6.70;;;;;;;46.76;24.30;96208.03;125868;1093;1974610;-87
2021/07/14 08:17:31;;;;;;;7.63;6.88;;;;;;;46.93;23.24;96197.36;127623;1092;33482;-86
2021/07/14 08:20:03;;;;;;;8.20;6.55;;;;;;;46.80;23.63;96205.70;127765;1092;33873;-87
2021/07/14 08:22:35;;;;;;;8.68;6.95;;;;;;;46.44;22.91;96211.48;125917;1093;2015648;-88
2021/07/14 08:25:17;;;;;;;10.65;7.18;;;;;;;45.63;22.11;96213.27;119709;1093;5512445;-87
2021/07/14 08:27:53;;;;;;;10.50;6.85;;;;;;;44.34;23.08;96219.53;70052;1093;7798973;-86
2021/07/14 08:30:26;;;;;;;13.38;7.68;;;;;;;43.99;23.61;96220.88;127506;1093;28123;-87
2021/07/14 08:32:57;;;;;;;10.05;7.68;;;;;;;43.69;23.27;96208.70;127714;1093;89221;-87
2021/07/14 08:35:29;;;;;;;9.28;7.68;;;;;;;43.42;24.60;96202.61;126436;1093;1445273;-87
2021/07/14 08:38:01;;;;;;;8.63;7.20;;;;;;;43.00;24.31;96208.38;126417;1093;1289432;-87
2021/07/14 08:40:32;;;;;;;8.70;7.50;;;;;;;42.71;24.31;96204.72;127664;1093;65437;-86
2021/07/14 08:43:06;;;;;;;8.55;7.70;;;;;;;42.66;25.79;96205.48;127654;1093;30798;-86
2021/07/14 08:45:39;;;;;;;9.83;7.27;;;;;;;42.79;25.59;96202.95;125877;1093;2035749;-86
2021/07/14 08:48:14;;;;;;;7.93;6.98;;;;;;;42.37;25.96;96207.36;127621;1092;111691;-87
2021/07/14 08:50:52;;;;;;;15.65;7.38;;;;;;;41.63;25.81;96210.13;127802;1093;27784;-85
2021/07/14 08:53:24;;;;;;;8.03;7.10;;;;;;;40.61;25.89;96212.38;127667;1092;22896;-86
2021/07/14 08:55:59;;;;;;;9.03;7.40;;;;;;;40.04;27.09;96196.97;127689;1093;26962;-87
2021/07/14 08:58:32;;;;;;;11.28;7.50;;;;;;;39.69;27.66;96218.36;127706;1092;85175;-86
2021/07/14 09:01:03;;;;;;;10.53;7.53;;;;;;;38.83;27.48;96216.56;125993;1093;2024383;-86
2021/07/14 09:03:35;;;;;;;11.33;7.73;;;;;;;37.79;28.14;96217.34;127774;1093;24477;-86
2021/07/14 09:06:08;;;;;;;11.58;7.78;;;;;;;37.35;29.18;96210.24;127733;1092;49923;-86
2021/07/14 09:08:40;;;;;;;11.93;8.00;;;;;;;36.68;29.46;96224.22;127647;1093;65257;-87
2021/07/14 09:11:12;;;;;;;9.83;7.73;;;;;;;36.07;30.60;96225.95;127774;1093;23418;-87
2021/07/14 09:13:46;;;;;;;10.75;7.63;;;;;;;35.89;30.41;96238.44;127776;1093;92179;-86
2021/07/14 09:16:36;;;;;;;10.63;8.25;;;;;;;35.65;30.88;96231.89;127759;1092;73161;-86
2021/07/14 09:19:13;;;;;;;11.23;7.33;;;;;;;35.07;30.68;96229.70;127891;1093;77487;-86
2021/07/14 09:21:45;;;;;;;11.48;8.23;;;;;;;34.44;31.90;96233.42;127932;1092;30106;-86
2021/07/14 09:24:31;;;;;;;11.55;7.85;;;;;;;34.00;32.79;96241.50;127612;1092;22839;-87
2021/07/14 09:27:16;;;;;;;12.40;7.83;;;;;;;33.63;32.62;96243.00;127683;1093;24687;-86
2021/07/14 09:30:15;;;;;;;12.33;7.88;;;;;;;33.50;33.99;96242.20;127586;1093;86909;-86
2021/07/14 09:32:49;;;;;;;11.15;7.93;;;;;;;33.63;33.90;96243.00;127983;1092;26714;-86
2021/07/14 09:35:33;;;;;;;10.48;7.53;;;;;;;33.41;34.13;96247.59;127976;1093;56918;-85
2021/07/14 09:38:09;;;;;;;11.48;8.08;;;;;;;33.24;34.16;96244.13;127921;1093;26568;-86
2021/07/14 09:40:43;;;;;;;13.53;8.18;;;;;;;33.19;34.71;96244.65;127903;1092;50139;-86
2021/07/14 09:43:16;;;;;;;8.85;7.95;;;;;;;33.21;35.34;96244.98;127946;1092;47050;-86
2021/07/14 09:45:51;;;;;;;11.73;8.25;;;;;;;33.09;35.37;96248.48;127793;1093;128320;-85
2021/07/14 09:48:26;;;;;;;12.55;8.98;;;;;;;33.15;36.13;96246.73;127890;1093;59048;-86
2021/07/14 09:51:03;;;;;;;11.75;7.95;;;;;;;33.25;35.87;96251.94;127897;1092;43461;-87
2021/07/14 09:53:38;;;;;;;12.00;8.78;;;;;;;33.13;36.64;96260.14;127889;1092;32981;-87
2021/07/14 09:56:17;;;;;;;11.38;9.38;;;;;;;32.81;37.74;96259.04;127774;1093;31326;-87
2021/07/14 09:59:02;;;;;;;11.38;9.43;;;;;;;32.59;38.24;96260.75;127686;1093;30090;-86
2021/07/14 10:01:43;;;;;;;10.93;8.88;;;;;;;32.40;38.95;96265.92;127760;1092;22819;-86
2021/07/14 10:04:22;;;;;;;13.33;9.03;;;;;;;32.25;39.71;96269.42;127864;1093;29967;-87
2021/07/14 10:07:09;;;;;;;13.27;9.57;;;;;;;32.25;40.01;96267.45;127641;1093;27546;-86
2021/07/14 10:09:43;;;;;;;17.03;9.60;;;;;;;32.41;39.95;96261.98;127677;1093;25983;-86
2021/07/14 10:12:33;;;;;;;10.90;8.95;;;;;;;32.54;39.30;96261.28;127717;1093;41423;-86
2021/07/14 10:15:22;;;;;;;10.30;8.40;;;;;;;32.75;39.63;96263.47;127524;1093;68431;-87
2021/07/14 10:17:55;;;;;;;10.23;8.27;;;;;;;33.03;38.37;96262.73;127573;1093;53289;-87
2021/07/14 10:20:30;;;;;;;12.70;8.08;;;;;;;33.31;37.91;96265.89;127651;1093;23418;-87
2021/07/14 10:23:05;;;;;;;13.13;8.25;;;;;;;33.62;38.47;96258.72;127708;1093;24616;-88
2021/07/14 10:25:38;;;;;;;10.18;7.80;;;;;;;33.87;36.94;96268.23;127697;1092;25791;-88
2021/07/14 10:28:12;;;;;;;9.23;7.37;;;;;;;33.97;36.45;96261.64;127650;1093;54916;-89
2021/07/14 10:30:45;;;;;;;11.98;8.05;;;;;;;33.90;36.50;96264.59;127752;1093;25428;-87
2021/07/14 10:33:20;;;;;;;9.83;7.85;;;;;;;33.90;35.89;96264.59;127655;1092;49977;-86
2021/07/14 10:35:54;;;;;;;10.40;8.15;;;;;;;33.90;35.93;96270.87;127729;1093;23524;-87
2021/07/14 10:38:29;;;;;;;12.70;8.55;;;;;;;33.92;36.11;96270.42;127704;1093;81818;-89
2021/07/14 10:41:02;;;;;;;9.50;8.43;;;;;;;34.03;36.08;96270.88;127741;1092;23933;-87
2021/07/14 10:43:35;;;;;;;12.63;8.23;;;;;;;34.10;35.72;96273.41;127718;1092;71586;-87
2021/07/14 10:46:07;;;;;;;10.88;7.98;;;;;;;33.99;35.67;96263.95;127801;1093;27166;-88
2021/07/14 10:48:41;;;;;;;15.25;7.90;;;;;;;33.93;35.48;96260.98;127796;1093;98571;-89
2021/07/14 10:51:13;;;;;;;10.38;8.63;;;;;;;33.84;35.13;96266.34;127845;1093;24111;-89
2021/07/14 10:53:47;;;;;;;13.03;8.73;;;;;;;33.75;36.05;96271.72;127657;1093;24678;-89
2021/07/14 10:56:19;;;;;;;10.93;8.15;;;;;;;33.79;35.54;96266.90;127561;1092;104632;-88
2021/07/14 10:58:53;;;;;;;16.93;8.40;;;;;;;33.70;35.49;96258.52;127500;1093;94961;-91
2021/07/14 11:01:46;;;;;;;10.65;7.95;;;;;;;33.60;35.92;96261.14;127625;1092;26473;-89
2021/07/14 11:04:51;;;;;;;12.50;8.85;;;;;;;33.45;36.52;96259.25;127555;1093;92890;-87
2021/07/14 11:07:41;;;;;;;12.10;8.70;;;;;;;33.18;36.45;96256.84;127682;1093;63964;-87
2021/07/14 11:10:32;;;;;;;11.50;8.38;;;;;;;33.11;37.40;96260.58;127918;1092;27365;-88
2021/07/14 11:13:31;;;;;;;11.83;8.90;;;;;;;33.20;37.66;96254.43;127646;1093;88716;-89
2021/07/14 11:16:27;;;;;;;12.20;9.08;;;;;;;33.29;36.91;96252.59;127697;1092;48997;-89
2021/07/14 11:19:05;;;;;;;11.88;7.70;;;;;;;33.31;37.56;96254.91;127777;1093;23420;-88
2021/07/14 11:21:58;;;;;;;10.45;7.98;;;;;;;33.37;37.55;96247.70;127651;1092;75003;-88
2021/07/14 11:24:57;;;;;;;10.73;7.95;;;;;;;33.47;37.68;96243.86;127731;1093;59494;-87
2021/07/14 11:27:49;;;;;;;14.70;9.45;;;;;;;33.58;38.56;96249.81;127597;1093;27732;-88
2021/07/14 11:30:39;;;;;;;14.18;10.48;;;;;;;33.42;38.22;96241.66;127622;1093;45738;-89
2021/07/14 11:33:19;;;;;;;12.73;10.73;;;;;;;33.19;38.23;96237.17;127588;1092;75067;-89
2021/07/14 11:35:57;;;;;;;14.48;11.05;;;;;;;33.19;38.75;96239.16;127660;1092;25292;-87
2021/07/14 11:38:33;;;;;;;13.30;10.98;;;;;;;33.14;39.14;96236.95;127659;1093;27140;-90
2021/07/14 11:41:05;;;;;;;12.55;10.43;;;;;;;33.08;38.82;96244.97;127815;1093;31501;-89
2021/07/14 11:43:44;;;;;;;12.33;10.43;;;;;;;33.00;38.69;96238.89;127651;1093;100609;-88
2021/07/14 11:46:20;;;;;;;12.83;9.53;;;;;;;32.86;39.57;96239.28;127703;1093;64128;-88
2021/07/14 11:49:03;;;;;;;11.83;10.07;;;;;;;32.89;39.26;96245.88;127773;1093;39191;-89
2021/07/14 11:51:38;;;;;;;15.35;9.55;;;;;;;32.91;39.44;96249.72;127736;1093;56559;-89
2021/07/14 11:54:28;;;;;;;12.08;9.30;;;;;;;32.68;38.91;96249.94;127722;1092;38984;-90